sensor_id;sensor_type;location;lat;lon;timestamp;pressure;altitude;pressure_sealevel;temperature;humidity
7264;BME280;3673;52.480;13.348;2023-11-21T00:00:48;100424.75;;;13.03;66.79
7264;BME280;3673;52.480;13.348;2023-11-21T00:03:15;100430.38;;;13.35;65.93
7264;BME280;3673;52.480;13.348;2023-11-21T00:05:42;100429.53;;;13.31;66.05
7264;BME280;3673;52.480;13.348;2023-11-21T00:08:08;100431.75;;;13.02;66.35
7264;BME280;3673;52.480;13.348;2023-11-21T00:10:36;100434.69;;;12.82;66.48
7264;BME280;3673;52.480;13.348;2023-11-21T00:13:04;100430.47;;;12.72;66.28
7264;BME280;3673;52.480;13.348;2023-11-21T00:15:31;100450.63;;;12.70;66.41
7264;BME280;3673;52.480;13.348;2023-11-21T00:18:00;100445.16;;;12.85;66.17
7264;BME280;3673;52.480;13.348;2023-11-21T00:20:27;100450.88;;;12.54;66.33
7264;BME280;3673;52.480;13.348;2023-11-21T00:22:53;100452.38;;;12.68;66.12
7264;BME280;3673;52.480;13.348;2023-11-21T00:25:20;100453.22;;;12.73;65.50
7264;BME280;3673;52.480;13.348;2023-11-21T00:27:47;100453.50;;;12.52;66.22
7264;BME280;3673;52.480;13.348;2023-11-21T00:30:14;100450.22;;;12.35;66.62
7264;BME280;3673;52.480;13.348;2023-11-21T00:32:41;100457.78;;;12.61;65.79
7264;BME280;3673;52.480;13.348;2023-11-21T00:35:10;100452.44;;;12.65;65.42
7264;BME280;3673;52.480;13.348;2023-11-21T00:37:36;100463.22;;;12.46;65.70
7264;BME280;3673;52.480;13.348;2023-11-21T00:40:06;100463.75;;;12.70;65.46
7264;BME280;3673;52.480;13.348;2023-11-21T00:42:34;100462.53;;;12.30;65.69
7264;BME280;3673;52.480;13.348;2023-11-21T00:45:01;100476.25;;;12.52;64.85
7264;BME280;3673;52.480;13.348;2023-11-21T00:47:29;100482.84;;;12.11;65.28
7264;BME280;3673;52.480;13.348;2023-11-21T00:49:55;100485.63;;;11.98;65.76
7264;BME280;3673;52.480;13.348;2023-11-21T00:52:23;100484.47;;;12.23;65.16
7264;BME280;3673;52.480;13.348;2023-11-21T00:54:50;100487.06;;;12.24;65.10
7264;BME280;3673;52.480;13.348;2023-11-21T00:57:17;100486.91;;;12.38;65.25
7264;BME280;3673;52.480;13.348;2023-11-21T00:59:44;100484.25;;;12.43;64.96
7264;BME280;3673;52.480;13.348;2023-11-21T01:02:10;100497.53;;;12.29;65.26
7264;BME280;3673;52.480;13.348;2023-11-21T01:04:37;100485.19;;;12.37;64.54
7264;BME280;3673;52.480;13.348;2023-11-21T01:07:04;100493.94;;;12.34;64.17
7264;BME280;3673;52.480;13.348;2023-11-21T01:09:33;100501.00;;;12.29;63.70
7264;BME280;3673;52.480;13.348;2023-11-21T01:11:59;100502.16;;;12.04;64.13
7264;BME280;3673;52.480;13.348;2023-11-21T01:14:27;100506.34;;;12.22;63.86
7264;BME280;3673;52.480;13.348;2023-11-21T01:16:54;100513.59;;;12.00;64.28
7264;BME280;3673;52.480;13.348;2023-11-21T01:19:21;100520.75;;;11.83;64.83
7264;BME280;3673;52.480;13.348;2023-11-21T01:21:47;100526.72;;;11.97;64.91
7264;BME280;3673;52.480;13.348;2023-11-21T01:24:14;100524.09;;;11.97;64.42
7264;BME280;3673;52.480;13.348;2023-11-21T01:26:42;100520.56;;;11.98;64.30
7264;BME280;3673;52.480;13.348;2023-11-21T01:29:11;100532.72;;;12.10;63.58
7264;BME280;3673;52.480;13.348;2023-11-21T01:31:37;100523.38;;;11.83;64.02
7264;BME280;3673;52.480;13.348;2023-11-21T01:34:04;100540.97;;;11.66;64.85
7264;BME280;3673;52.480;13.348;2023-11-21T01:36:31;100540.88;;;11.79;64.40
7264;BME280;3673;52.480;13.348;2023-11-21T01:38:59;100534.81;;;11.70;64.44
7264;BME280;3673;52.480;13.348;2023-11-21T01:41:26;100541.84;;;11.66;64.44
7264;BME280;3673;52.480;13.348;2023-11-21T01:43:55;100539.00;;;11.92;64.15
7264;BME280;3673;52.480;13.348;2023-11-21T01:46:23;100539.25;;;11.63;63.91
7264;BME280;3673;52.480;13.348;2023-11-21T01:48:49;100539.25;;;11.59;64.14
7264;BME280;3673;52.480;13.348;2023-11-21T01:51:17;100534.06;;;11.54;64.29
7264;BME280;3673;52.480;13.348;2023-11-21T01:53:44;100544.75;;;11.30;64.47
7264;BME280;3673;52.480;13.348;2023-11-21T01:56:12;100536.81;;;11.41;64.30
7264;BME280;3673;52.480;13.348;2023-11-21T01:58:39;100540.28;;;11.41;64.47
7264;BME280;3673;52.480;13.348;2023-11-21T02:01:08;100542.84;;;11.49;64.27
7264;BME280;3673;52.480;13.348;2023-11-21T02:03:35;100557.75;;;11.44;63.98
7264;BME280;3673;52.480;13.348;2023-11-21T02:06:02;100561.25;;;11.40;63.35
7264;BME280;3673;52.480;13.348;2023-11-21T02:08:29;100554.13;;;11.55;63.49
7264;BME280;3673;52.480;13.348;2023-11-21T02:10:55;100571.84;;;11.21;63.66
7264;BME280;3673;52.480;13.348;2023-11-21T02:13:23;100566.41;;;11.53;62.86
7264;BME280;3673;52.480;13.348;2023-11-21T02:15:49;100565.63;;;11.41;62.99
7264;BME280;3673;52.480;13.348;2023-11-21T02:18:21;100559.47;;;11.43;62.94
7264;BME280;3673;52.480;13.348;2023-11-21T02:20:48;100572.53;;;11.51;62.49
7264;BME280;3673;52.480;13.348;2023-11-21T02:23:16;100573.44;;;11.47;62.49
7264;BME280;3673;52.480;13.348;2023-11-21T02:25:43;100581.44;;;11.22;63.03
7264;BME280;3673;52.480;13.348;2023-11-21T02:28:10;100560.44;;;11.31;63.42
7264;BME280;3673;52.480;13.348;2023-11-21T02:30:38;100576.22;;;11.22;63.93
7264;BME280;3673;52.480;13.348;2023-11-21T02:33:05;100577.06;;;11.24;64.07
7264;BME280;3673;52.480;13.348;2023-11-21T02:35:32;100583.16;;;11.26;63.82
7264;BME280;3673;52.480;13.348;2023-11-21T02:38:00;100579.69;;;11.26;62.84
7264;BME280;3673;52.480;13.348;2023-11-21T02:40:28;100577.03;;;11.33;62.80
7264;BME280;3673;52.480;13.348;2023-11-21T02:42:55;100581.28;;;11.45;63.04
7264;BME280;3673;52.480;13.348;2023-11-21T02:45:24;100588.41;;;11.25;63.82
7264;BME280;3673;52.480;13.348;2023-11-21T02:47:51;100584.00;;;11.31;63.16
7264;BME280;3673;52.480;13.348;2023-11-21T02:50:22;100592.75;;;11.24;63.10
7264;BME280;3673;52.480;13.348;2023-11-21T02:52:49;100587.47;;;11.35;63.41
7264;BME280;3673;52.480;13.348;2023-11-21T02:55:15;100585.00;;;11.09;63.68
7264;BME280;3673;52.480;13.348;2023-11-21T02:57:44;100573.50;;;11.34;63.21
7264;BME280;3673;52.480;13.348;2023-11-21T03:00:11;100583.16;;;11.26;63.20
7264;BME280;3673;52.480;13.348;2023-11-21T03:02:40;100588.38;;;11.34;62.75
7264;BME280;3673;52.480;13.348;2023-11-21T03:05:08;100590.97;;;11.31;63.10
7264;BME280;3673;52.480;13.348;2023-11-21T03:07:36;100597.91;;;11.38;62.86
7264;BME280;3673;52.480;13.348;2023-11-21T03:10:03;100598.97;;;11.10;63.17
7264;BME280;3673;52.480;13.348;2023-11-21T03:12:30;100594.53;;;11.21;63.33
7264;BME280;3673;52.480;13.348;2023-11-21T03:14:58;100602.41;;;11.18;63.30
7264;BME280;3673;52.480;13.348;2023-11-21T03:17:25;100605.13;;;11.00;63.60
7264;BME280;3673;52.480;13.348;2023-11-21T03:19:52;100605.88;;;11.26;62.93
7264;BME280;3673;52.480;13.348;2023-11-21T03:22:18;100601.50;;;11.25;62.97
7264;BME280;3673;52.480;13.348;2023-11-21T03:24:45;100617.16;;;11.31;62.89
7264;BME280;3673;52.480;13.348;2023-11-21T03:27:12;100616.41;;;11.17;62.57
7264;BME280;3673;52.480;13.348;2023-11-21T03:29:39;100613.94;;;10.74;63.48
7264;BME280;3673;52.480;13.348;2023-11-21T03:32:07;100625.09;;;11.19;62.88
7264;BME280;3673;52.480;13.348;2023-11-21T03:34:34;100636.53;;;11.01;62.31
7264;BME280;3673;52.480;13.348;2023-11-21T03:37:01;100639.22;;;10.86;62.59
7264;BME280;3673;52.480;13.348;2023-11-21T03:39:28;100638.31;;;10.93;62.39
7264;BME280;3673;52.480;13.348;2023-11-21T03:41:55;100644.34;;;11.10;62.47
7264;BME280;3673;52.480;13.348;2023-11-21T03:44:21;100645.28;;;10.91;62.83
7264;BME280;3673;52.480;13.348;2023-11-21T03:46:48;100646.13;;;11.05;62.29
7264;BME280;3673;52.480;13.348;2023-11-21T03:49:16;100643.44;;;11.20;62.13
7264;BME280;3673;52.480;13.348;2023-11-21T03:51:43;100646.91;;;11.27;61.36
7264;BME280;3673;52.480;13.348;2023-11-21T03:54:10;100648.78;;;10.92;60.67
7264;BME280;3673;52.480;13.348;2023-11-21T03:56:36;100652.38;;;10.63;61.56
7264;BME280;3673;52.480;13.348;2023-11-21T03:59:03;100672.38;;;10.81;61.42
7264;BME280;3673;52.480;13.348;2023-11-21T04:01:30;100662.75;;;10.97;60.76
7264;BME280;3673;52.480;13.348;2023-11-21T04:03:57;100671.44;;;11.00;60.64
7264;BME280;3673;52.480;13.348;2023-11-21T04:06:25;100675.81;;;10.95;60.28
7264;BME280;3673;52.480;13.348;2023-11-21T04:08:51;100668.94;;;10.55;60.17
7264;BME280;3673;52.480;13.348;2023-11-21T04:11:18;100672.38;;;10.85;60.30
7264;BME280;3673;52.480;13.348;2023-11-21T04:13:45;100675.09;;;10.46;61.02
7264;BME280;3673;52.480;13.348;2023-11-21T04:16:12;100675.84;;;10.86;60.25
7264;BME280;3673;52.480;13.348;2023-11-21T04:18:39;100681.13;;;10.69;60.57
7264;BME280;3673;52.480;13.348;2023-11-21T04:21:07;100682.88;;;10.69;60.20
7264;BME280;3673;52.480;13.348;2023-11-21T04:23:35;100686.31;;;10.86;59.84
7264;BME280;3673;52.480;13.348;2023-11-21T04:26:02;100690.59;;;11.13;59.55
7264;BME280;3673;52.480;13.348;2023-11-21T04:28:29;100692.41;;;10.96;59.62
7264;BME280;3673;52.480;13.348;2023-11-21T04:30:56;100691.50;;;11.07;59.46
7264;BME280;3673;52.480;13.348;2023-11-21T04:33:23;100704.56;;;11.09;59.35
7264;BME280;3673;52.480;13.348;2023-11-21T04:35:51;100702.78;;;11.11;58.67
7264;BME280;3673;52.480;13.348;2023-11-21T04:38:17;100707.22;;;10.95;59.01
7264;BME280;3673;52.480;13.348;2023-11-21T04:40:46;100704.53;;;11.16;59.35
7264;BME280;3673;52.480;13.348;2023-11-21T04:43:12;100712.44;;;10.98;59.26
7264;BME280;3673;52.480;13.348;2023-11-21T04:45:39;100713.28;;;11.12;59.01
7264;BME280;3673;52.480;13.348;2023-11-21T04:48:07;100715.88;;;11.23;58.10
7264;BME280;3673;52.480;13.348;2023-11-21T04:50:34;100715.09;;;10.97;58.67
7264;BME280;3673;52.480;13.348;2023-11-21T04:53:00;100710.59;;;11.24;58.34
7264;BME280;3673;52.480;13.348;2023-11-21T04:55:27;100723.66;;;11.36;58.12
7264;BME280;3673;52.480;13.348;2023-11-21T04:57:55;100712.50;;;10.86;58.60
7264;BME280;3673;52.480;13.348;2023-11-21T05:00:22;100717.59;;;11.21;57.98
7264;BME280;3673;52.480;13.348;2023-11-21T05:02:49;100720.28;;;11.13;58.44
7264;BME280;3673;52.480;13.348;2023-11-21T05:05:16;100721.19;;;10.91;58.17
7264;BME280;3673;52.480;13.348;2023-11-21T05:07:43;100735.97;;;11.16;58.06
7264;BME280;3673;52.480;13.348;2023-11-21T05:10:10;100732.41;;;11.28;57.33
7264;BME280;3673;52.480;13.348;2023-11-21T05:12:37;100734.28;;;10.99;57.54
7264;BME280;3673;52.480;13.348;2023-11-21T05:15:08;100745.56;;;11.13;57.54
7264;BME280;3673;52.480;13.348;2023-11-21T05:17:36;100746.47;;;11.07;57.67
7264;BME280;3673;52.480;13.348;2023-11-21T05:20:05;100746.41;;;11.22;58.08
7264;BME280;3673;52.480;13.348;2023-11-21T05:22:34;100756.94;;;11.09;58.16
7264;BME280;3673;52.480;13.348;2023-11-21T05:25:01;100756.09;;;11.01;57.82
7264;BME280;3673;52.480;13.348;2023-11-21T05:27:29;100751.72;;;10.88;57.44
7264;BME280;3673;52.480;13.348;2023-11-21T05:29:56;100755.19;;;11.05;57.21
7264;BME280;3673;52.480;13.348;2023-11-21T05:32:24;100756.13;;;10.75;57.48
7264;BME280;3673;52.480;13.348;2023-11-21T05:34:52;100758.78;;;10.34;58.77
7264;BME280;3673;52.480;13.348;2023-11-21T05:37:19;100760.50;;;10.20;58.56
7264;BME280;3673;52.480;13.348;2023-11-21T05:39:46;100773.59;;;10.50;58.01
7264;BME280;3673;52.480;13.348;2023-11-21T05:42:13;100774.44;;;10.69;57.53
7264;BME280;3673;52.480;13.348;2023-11-21T05:44:42;100777.09;;;10.67;57.37
7264;BME280;3673;52.480;13.348;2023-11-21T05:47:09;100778.81;;;10.76;56.95
7264;BME280;3673;52.480;13.348;2023-11-21T05:49:37;100793.66;;;10.77;56.98
7264;BME280;3673;52.480;13.348;2023-11-21T05:52:04;100785.78;;;10.51;57.52
7264;BME280;3673;52.480;13.348;2023-11-21T05:54:31;100791.91;;;10.65;57.36
7264;BME280;3673;52.480;13.348;2023-11-21T05:56:59;100791.91;;;10.46;57.47
7264;BME280;3673;52.480;13.348;2023-11-21T05:59:26;100795.41;;;10.67;57.12
7264;BME280;3673;52.480;13.348;2023-11-21T06:01:52;100791.91;;;10.33;57.44
7264;BME280;3673;52.480;13.348;2023-11-21T06:04:19;100791.91;;;10.65;57.02
7264;BME280;3673;52.480;13.348;2023-11-21T06:06:51;100798.88;;;10.53;56.88
7264;BME280;3673;52.480;13.348;2023-11-21T06:09:18;100818.91;;;10.48;56.99
7264;BME280;3673;52.480;13.348;2023-11-21T06:11:44;100811.09;;;10.73;56.21
7264;BME280;3673;52.480;13.348;2023-11-21T06:14:11;100813.69;;;10.81;55.89
7264;BME280;3673;52.480;13.348;2023-11-21T06:16:38;100824.16;;;10.78;56.48
7264;BME280;3673;52.480;13.348;2023-11-21T06:19:05;100826.75;;;10.81;56.06
7264;BME280;3673;52.480;13.348;2023-11-21T06:21:32;100832.91;;;10.77;56.05
7264;BME280;3673;52.480;13.348;2023-11-21T06:24:00;100832.00;;;10.66;56.28
7264;BME280;3673;52.480;13.348;2023-11-21T06:26:27;100835.47;;;10.39;56.76
7264;BME280;3673;52.480;13.348;2023-11-21T06:28:54;100845.09;;;10.69;55.67
7264;BME280;3673;52.480;13.348;2023-11-21T06:31:22;100850.31;;;10.72;55.81
7264;BME280;3673;52.480;13.348;2023-11-21T06:33:49;100854.66;;;10.52;56.37
7264;BME280;3673;52.480;13.348;2023-11-21T06:36:17;100858.19;;;10.67;55.47
7264;BME280;3673;52.480;13.348;2023-11-21T06:38:44;100855.56;;;10.95;55.25
7264;BME280;3673;52.480;13.348;2023-11-21T06:41:12;100861.66;;;10.78;55.10
7264;BME280;3673;52.480;13.348;2023-11-21T06:43:41;100862.53;;;10.65;54.78
7264;BME280;3673;52.480;13.348;2023-11-21T06:46:10;100880.00;;;10.57;54.89
7264;BME280;3673;52.480;13.348;2023-11-21T06:48:38;100880.84;;;10.59;55.18
7264;BME280;3673;52.480;13.348;2023-11-21T06:51:06;100881.69;;;10.45;55.74
7264;BME280;3673;52.480;13.348;2023-11-21T06:53:33;100870.41;;;10.67;55.02
7264;BME280;3673;52.480;13.348;2023-11-21T06:55:59;100887.84;;;10.72;55.38
7264;BME280;3673;52.480;13.348;2023-11-21T06:58:27;100877.34;;;10.56;55.16
7264;BME280;3673;52.480;13.348;2023-11-21T07:00:54;100882.56;;;10.48;55.21
7264;BME280;3673;52.480;13.348;2023-11-21T07:03:21;100887.81;;;10.47;55.59
7264;BME280;3673;52.480;13.348;2023-11-21T07:05:47;100891.28;;;10.55;55.11
7264;BME280;3673;52.480;13.348;2023-11-21T07:08:14;100893.06;;;10.68;55.00
7264;BME280;3673;52.480;13.348;2023-11-21T07:10:41;100888.63;;;10.32;55.87
7264;BME280;3673;52.480;13.348;2023-11-21T07:13:08;100895.59;;;10.28;55.51
7264;BME280;3673;52.480;13.348;2023-11-21T07:15:40;100902.66;;;10.57;55.15
7264;BME280;3673;52.480;13.348;2023-11-21T07:18:06;100900.94;;;10.74;55.28
7264;BME280;3673;52.480;13.348;2023-11-21T07:20:33;100906.16;;;10.69;55.22
7264;BME280;3673;52.480;13.348;2023-11-21T07:23:00;100903.50;;;10.44;55.76
7264;BME280;3673;52.480;13.348;2023-11-21T07:25:27;100909.59;;;10.46;55.82
7264;BME280;3673;52.480;13.348;2023-11-21T07:27:53;100903.50;;;10.41;55.71
7264;BME280;3673;52.480;13.348;2023-11-21T07:30:20;100893.06;;;10.69;55.75
7264;BME280;3673;52.480;13.348;2023-11-21T07:32:49;100902.66;;;10.51;55.54
7264;BME280;3673;52.480;13.348;2023-11-21T07:35:16;100909.59;;;10.58;55.47
7264;BME280;3673;52.480;13.348;2023-11-21T07:37:42;100908.69;;;10.31;56.43
7264;BME280;3673;52.480;13.348;2023-11-21T07:40:10;100920.09;;;10.59;55.67
7264;BME280;3673;52.480;13.348;2023-11-21T07:42:37;100910.44;;;10.36;55.69
7264;BME280;3673;52.480;13.348;2023-11-21T07:45:06;100923.56;;;10.46;56.02
7264;BME280;3673;52.480;13.348;2023-11-21T07:47:33;100922.59;;;10.17;56.14
7264;BME280;3673;52.480;13.348;2023-11-21T07:50:03;100921.78;;;10.42;56.09
7264;BME280;3673;52.480;13.348;2023-11-21T07:52:29;100931.31;;;10.20;56.42
7264;BME280;3673;52.480;13.348;2023-11-21T07:54:56;100924.38;;;10.31;56.10
7264;BME280;3673;52.480;13.348;2023-11-21T07:57:23;100925.34;;;10.64;55.27
7264;BME280;3673;52.480;13.348;2023-11-21T07:59:50;100924.41;;;10.51;55.61
7264;BME280;3673;52.480;13.348;2023-11-21T08:02:19;100939.25;;;10.61;55.64
7264;BME280;3673;52.480;13.348;2023-11-21T08:04:45;100933.16;;;10.50;55.54
7264;BME280;3673;52.480;13.348;2023-11-21T08:07:16;100949.78;;;10.79;55.17
7264;BME280;3673;52.480;13.348;2023-11-21T08:09:43;100941.88;;;10.55;55.56
7264;BME280;3673;52.480;13.348;2023-11-21T08:12:10;100950.47;;;10.16;56.17
7264;BME280;3673;52.480;13.348;2023-11-21T08:14:36;100957.53;;;10.45;56.19
7264;BME280;3673;52.480;13.348;2023-11-21T08:17:04;100958.41;;;10.48;56.00
7264;BME280;3673;52.480;13.348;2023-11-21T08:19:31;100967.16;;;10.49;55.97
7264;BME280;3673;52.480;13.348;2023-11-21T08:21:58;100961.84;;;10.26;56.35
7264;BME280;3673;52.480;13.348;2023-11-21T08:24:26;100964.47;;;10.32;56.27
7264;BME280;3673;52.480;13.348;2023-11-21T08:26:53;100961.84;;;10.26;56.18
7264;BME280;3673;52.480;13.348;2023-11-21T08:29:20;100963.66;;;10.41;55.58
7264;BME280;3673;52.480;13.348;2023-11-21T08:31:47;100968.03;;;10.58;55.12
7264;BME280;3673;52.480;13.348;2023-11-21T08:34:13;100968.03;;;10.54;55.37
7264;BME280;3673;52.480;13.348;2023-11-21T08:36:42;100973.16;;;10.28;55.70
7264;BME280;3673;52.480;13.348;2023-11-21T08:39:09;100969.75;;;10.40;54.97
7264;BME280;3673;52.480;13.348;2023-11-21T08:41:37;100974.88;;;10.15;55.23
7264;BME280;3673;52.480;13.348;2023-11-21T08:44:05;100977.53;;;10.32;54.96
7264;BME280;3673;52.480;13.348;2023-11-21T08:46:32;100986.28;;;10.39;54.91
7264;BME280;3673;52.480;13.348;2023-11-21T08:49:01;100980.19;;;10.40;54.63
7264;BME280;3673;52.480;13.348;2023-11-21T08:51:27;100979.13;;;10.04;54.78
7264;BME280;3673;52.480;13.348;2023-11-21T08:53:54;100997.56;;;10.28;54.59
7264;BME280;3673;52.480;13.348;2023-11-21T08:56:24;100990.66;;;10.37;54.18
7264;BME280;3673;52.480;13.348;2023-11-21T08:58:52;100993.97;;;10.10;55.10
7264;BME280;3673;52.480;13.348;2023-11-21T09:01:19;100995.91;;;10.49;54.87
7264;BME280;3673;52.480;13.348;2023-11-21T09:03:46;101005.44;;;10.34;54.50
7264;BME280;3673;52.480;13.348;2023-11-21T09:06:13;101004.47;;;10.17;55.00
7264;BME280;3673;52.480;13.348;2023-11-21T09:08:40;101007.13;;;10.22;54.98
7264;BME280;3673;52.480;13.348;2023-11-21T09:11:07;101008.97;;;10.46;54.49
7264;BME280;3673;52.480;13.348;2023-11-21T09:13:34;101019.47;;;10.52;54.42
7264;BME280;3673;52.480;13.348;2023-11-21T09:16:03;101022.09;;;10.55;54.48
7264;BME280;3673;52.480;13.348;2023-11-21T09:18:31;101023.81;;;10.48;54.81
7264;BME280;3673;52.480;13.348;2023-11-21T09:20:57;101027.09;;;10.09;54.84
7264;BME280;3673;52.480;13.348;2023-11-21T09:23:24;101037.47;;;9.99;55.72
7264;BME280;3673;52.480;13.348;2023-11-21T09:25:51;101032.41;;;10.23;55.22
7264;BME280;3673;52.480;13.348;2023-11-21T09:28:22;101040.34;;;10.44;54.56
7264;BME280;3673;52.480;13.348;2023-11-21T09:30:49;101041.91;;;10.10;55.36
7264;BME280;3673;52.480;13.348;2023-11-21T09:33:17;101043.69;;;10.14;54.71
7264;BME280;3673;52.480;13.348;2023-11-21T09:35:44;101051.66;;;10.32;54.96
7264;BME280;3673;52.480;13.348;2023-11-21T09:38:11;101050.81;;;10.43;54.81
7264;BME280;3673;52.480;13.348;2023-11-21T09:40:38;101061.09;;;10.12;55.55
7264;BME280;3673;52.480;13.348;2023-11-21T09:43:08;101054.97;;;10.09;54.77
7264;BME280;3673;52.480;13.348;2023-11-21T09:45:46;101059.31;;;10.07;55.09
7264;BME280;3673;52.480;13.348;2023-11-21T09:48:14;101055.81;;;10.05;54.98
7264;BME280;3673;52.480;13.348;2023-11-21T09:50:43;101069.09;;;10.30;54.41
7264;BME280;3673;52.480;13.348;2023-11-21T09:53:16;101074.00;;;9.90;55.24
7264;BME280;3673;52.480;13.348;2023-11-21T09:55:46;101075.13;;;10.20;55.09
7264;BME280;3673;52.480;13.348;2023-11-21T09:58:14;101070.00;;;10.48;55.03
7264;BME280;3673;52.480;13.348;2023-11-21T10:00:42;101068.25;;;10.42;55.24
7264;BME280;3673;52.480;13.348;2023-11-21T10:03:09;101075.13;;;10.22;55.36
7264;BME280;3673;52.480;13.348;2023-11-21T10:05:36;101075.25;;;10.48;55.17
7264;BME280;3673;52.480;13.348;2023-11-21T10:08:08;101076.03;;;10.30;54.54
7264;BME280;3673;52.480;13.348;2023-11-21T10:10:37;101072.41;;;10.13;54.60
7264;BME280;3673;52.480;13.348;2023-11-21T10:13:07;101084.75;;;10.29;54.96
7264;BME280;3673;52.480;13.348;2023-11-21T10:15:36;101077.81;;;10.34;54.85
7264;BME280;3673;52.480;13.348;2023-11-21T10:18:04;101088.19;;;10.25;55.06
7264;BME280;3673;52.480;13.348;2023-11-21T10:20:33;101083.00;;;10.31;54.85
7264;BME280;3673;52.480;13.348;2023-11-21T10:23:00;101086.34;;;10.10;55.56
7264;BME280;3673;52.480;13.348;2023-11-21T10:25:29;101082.97;;;10.22;55.37
7264;BME280;3673;52.480;13.348;2023-11-21T10:27:59;101084.56;;;10.03;55.99
7264;BME280;3673;52.480;13.348;2023-11-21T10:30:31;101087.28;;;10.14;55.82
7264;BME280;3673;52.480;13.348;2023-11-21T10:32:59;101087.31;;;10.20;55.79
7264;BME280;3673;52.480;13.348;2023-11-21T10:35:42;101090.69;;;10.11;56.20
7264;BME280;3673;52.480;13.348;2023-11-21T10:38:12;101082.97;;;10.25;55.77
7264;BME280;3673;52.480;13.348;2023-11-21T10:40:41;101091.56;;;10.12;56.63
7264;BME280;3673;52.480;13.348;2023-11-21T10:43:09;101103.72;;;10.05;56.65
7264;BME280;3673;52.480;13.348;2023-11-21T10:45:37;101101.03;;;9.93;56.68
7264;BME280;3673;52.480;13.348;2023-11-21T10:48:06;101107.03;;;9.80;57.45
7264;BME280;3673;52.480;13.348;2023-11-21T10:50:35;101107.06;;;9.88;57.93
7264;BME280;3673;52.480;13.348;2023-11-21T10:53:03;101117.38;;;9.66;57.98
7264;BME280;3673;52.480;13.348;2023-11-21T10:55:30;101113.25;;;9.96;57.88
7264;BME280;3673;52.480;13.348;2023-11-21T10:58:00;101110.88;;;10.27;57.79
7264;BME280;3673;52.480;13.348;2023-11-21T11:00:29;101114.00;;;9.84;58.41
7264;BME280;3673;52.480;13.348;2023-11-21T11:02:56;101116.81;;;10.07;57.84
7264;BME280;3673;52.480;13.348;2023-11-21T11:05:26;101123.63;;;9.83;58.74
7264;BME280;3673;52.480;13.348;2023-11-21T11:08:00;101126.69;;;9.40;59.61
7264;BME280;3673;52.480;13.348;2023-11-21T11:10:29;101129.69;;;9.84;59.34
7264;BME280;3673;52.480;13.348;2023-11-21T11:12:58;101122.69;;;9.78;59.38
7264;BME280;3673;52.480;13.348;2023-11-21T11:15:26;101127.78;;;9.65;59.85
7264;BME280;3673;52.480;13.348;2023-11-21T11:17:54;101124.41;;;9.75;60.17
7264;BME280;3673;52.480;13.348;2023-11-21T11:20:25;101136.50;;;9.65;60.92
7264;BME280;3673;52.480;13.348;2023-11-21T11:23:13;101136.59;;;9.77;60.19
7264;BME280;3673;52.480;13.348;2023-11-21T11:26:01;101138.44;;;9.86;59.90
7264;BME280;3673;52.480;13.348;2023-11-21T11:28:42;101134.59;;;9.46;59.15
7264;BME280;3673;52.480;13.348;2023-11-21T11:31:22;101143.28;;;9.44;59.46
7264;BME280;3673;52.480;13.348;2023-11-21T11:33:57;101153.88;;;9.60;59.51
7264;BME280;3673;52.480;13.348;2023-11-21T11:36:29;101148.69;;;9.63;59.35
7264;BME280;3673;52.480;13.348;2023-11-21T11:38:58;101157.28;;;9.52;59.28
7264;BME280;3673;52.480;13.348;2023-11-21T11:41:30;101157.16;;;9.41;59.29
7264;BME280;3673;52.480;13.348;2023-11-21T11:44:01;101170.25;;;9.44;59.84
7264;BME280;3673;52.480;13.348;2023-11-21T11:46:41;101168.75;;;9.66;59.12
7264;BME280;3673;52.480;13.348;2023-11-21T11:49:08;101169.53;;;9.57;59.38
7264;BME280;3673;52.480;13.348;2023-11-21T11:51:35;101186.03;;;9.55;59.38
7264;BME280;3673;52.480;13.348;2023-11-21T11:54:02;101182.44;;;9.44;59.02
7264;BME280;3673;52.480;13.348;2023-11-21T11:56:32;101179.16;;;9.64;59.12
7264;BME280;3673;52.480;13.348;2023-11-21T11:59:02;101172.41;;;9.88;58.16
7264;BME280;3673;52.480;13.348;2023-11-21T12:01:33;101195.75;;;9.71;58.85
7264;BME280;3673;52.480;13.348;2023-11-21T12:04:25;101198.53;;;9.88;58.34
7264;BME280;3673;52.480;13.348;2023-11-21T12:07:01;101195.66;;;9.57;58.48
7264;BME280;3673;52.480;13.348;2023-11-21T12:09:31;101206.22;;;9.71;58.02
7264;BME280;3673;52.480;13.348;2023-11-21T12:11:58;101210.50;;;9.64;58.03
7264;BME280;3673;52.480;13.348;2023-11-21T12:14:26;101205.00;;;9.39;58.08
7264;BME280;3673;52.480;13.348;2023-11-21T12:16:54;101212.84;;;9.37;58.14
7264;BME280;3673;52.480;13.348;2023-11-21T12:19:21;101215.81;;;9.70;58.08
7264;BME280;3673;52.480;13.348;2023-11-21T12:21:49;101229.00;;;9.82;57.76
7264;BME280;3673;52.480;13.348;2023-11-21T12:24:16;101227.88;;;9.61;58.24
7264;BME280;3673;52.480;13.348;2023-11-21T12:26:43;101219.22;;;9.65;58.30
7264;BME280;3673;52.480;13.348;2023-11-21T12:29:11;101226.69;;;9.31;58.78
7264;BME280;3673;52.480;13.348;2023-11-21T12:31:39;101231.31;;;9.55;58.94
7264;BME280;3673;52.480;13.348;2023-11-21T12:34:07;101240.78;;;9.46;59.02
7264;BME280;3673;52.480;13.348;2023-11-21T12:36:37;101242.00;;;9.78;58.54
7264;BME280;3673;52.480;13.348;2023-11-21T12:39:04;101233.28;;;9.76;58.49
7264;BME280;3673;52.480;13.348;2023-11-21T12:41:34;101245.38;;;9.68;58.82
7264;BME280;3673;52.480;13.348;2023-11-21T12:44:01;101242.03;;;9.81;58.81
7264;BME280;3673;52.480;13.348;2023-11-21T12:46:28;101248.88;;;9.68;59.42
7264;BME280;3673;52.480;13.348;2023-11-21T12:48:59;101245.66;;;9.18;59.54
7264;BME280;3673;52.480;13.348;2023-11-21T12:51:26;101247.88;;;9.56;59.29
7264;BME280;3673;52.480;13.348;2023-11-21T12:53:52;101252.06;;;9.43;59.50
7264;BME280;3673;52.480;13.348;2023-11-21T12:56:21;101242.38;;;9.33;59.75
7264;BME280;3673;52.480;13.348;2023-11-21T12:58:49;101239.72;;;9.30;59.42
7264;BME280;3673;52.480;13.348;2023-11-21T13:01:17;101254.31;;;9.13;59.42
7264;BME280;3673;52.480;13.348;2023-11-21T13:03:47;101255.66;;;9.53;59.32
7264;BME280;3673;52.480;13.348;2023-11-21T13:06:18;101261.91;;;9.64;58.41